createdAt,value
2019-06-08T00:01:28.076Z,95591.30
2019-06-08T00:03:58.084Z,95590.95
2019-06-08T00:06:28.123Z,95590.48
2019-06-08T00:08:58.196Z,95576.02
2019-06-08T00:11:28.094Z,95574.04
2019-06-08T00:13:58.096Z,95569.91
2019-06-08T00:16:28.079Z,95569.96
2019-06-08T00:18:58.161Z,95581.50
2019-06-08T00:21:28.137Z,95583.52
2019-06-08T00:23:59.246Z,95581.42
2019-06-08T00:26:29.223Z,95590.84
2019-06-08T00:28:59.231Z,95598.47
2019-06-08T00:31:29.201Z,95602.52
2019-06-08T00:33:59.213Z,95606.48
2019-06-08T00:36:29.215Z,95614.11
2019-06-08T00:38:59.196Z,95615.69
2019-06-08T00:41:29.201Z,95618.80
2019-06-08T00:43:59.135Z,95620.89
2019-06-08T00:46:30.325Z,95622.98
2019-06-08T00:49:00.290Z,95630.06
2019-06-08T00:51:30.364Z,95640.22
2019-06-08T00:54:00.364Z,95639.38
2019-06-08T00:56:30.346Z,95645.62
2019-06-08T00:59:00.353Z,95651.61
2019-06-08T01:01:30.887Z,95653.75
2019-06-08T01:04:01.122Z,95652.05
2019-06-08T01:06:31.136Z,95657.95
2019-06-08T01:09:01.113Z,95661.77
2019-06-08T01:11:32.988Z,95667.83
2019-06-08T01:14:03.627Z,95658.49
2019-06-08T01:16:33.616Z,95667.97
2019-06-08T01:19:03.616Z,95674.22
2019-06-08T01:21:33.623Z,95679.02
2019-06-08T01:24:04.566Z,95675.16
2019-06-08T01:26:34.647Z,95676.73
2019-06-08T01:29:04.628Z,95694.61
2019-06-08T01:31:34.641Z,95693.95
2019-06-08T01:34:04.609Z,95692.80
2019-06-08T01:36:34.623Z,95692.52
2019-06-08T01:39:07.100Z,95690.51
2019-06-08T01:41:37.110Z,95699.03
2019-06-08T01:44:07.084Z,95704.02
2019-06-08T01:46:37.163Z,95694.41
2019-06-08T01:49:07.202Z,95687.92
2019-06-08T01:51:37.212Z,95685.97
2019-06-08T01:54:07.268Z,95686.59
2019-06-08T01:56:37.268Z,95690.07
2019-06-08T01:59:07.308Z,95697.88
2019-06-08T02:01:37.322Z,95702.97
2019-06-08T02:04:07.290Z,95707.00
2019-06-08T02:06:37.375Z,95708.77
2019-06-08T02:09:09.352Z,95713.20
2019-06-08T02:11:39.452Z,95723.02
2019-06-08T02:14:09.424Z,95721.83
2019-06-08T02:16:40.502Z,95726.98
2019-06-08T02:19:10.562Z,95722.55
2019-06-08T02:21:40.570Z,95731.89
2019-06-08T02:24:11.649Z,95740.95
2019-06-08T02:26:41.624Z,95740.52
2019-06-08T02:29:11.629Z,95742.28
2019-06-08T02:31:42.060Z,95745.33
2019-06-08T02:34:12.172Z,95743.44
2019-06-08T02:36:43.101Z,95740.59
2019-06-08T02:39:13.114Z,95745.39
2019-06-08T02:41:43.080Z,95756.25
2019-06-08T02:44:13.090Z,95753.25
2019-06-08T02:46:43.073Z,95746.16
2019-06-08T02:49:13.075Z,95757.59
2019-06-08T02:51:44.428Z,95761.91
2019-06-08T02:54:14.422Z,95769.84
2019-06-08T02:56:47.768Z,95779.72
2019-06-08T02:59:20.671Z,95776.33
2019-06-08T03:01:52.964Z,95774.41
2019-06-08T03:04:24.249Z,95771.44
2019-06-08T03:06:55.862Z,95777.71
2019-06-08T03:09:27.726Z,95783.20
2019-06-08T03:11:58.099Z,95780.59
2019-06-08T03:14:28.111Z,95793.77
2019-06-08T03:16:58.084Z,95791.77
2019-06-08T03:19:28.100Z,95795.23
2019-06-08T03:21:59.047Z,95799.55
2019-06-08T03:24:29.049Z,95792.59
2019-06-08T03:26:59.100Z,95796.56
2019-06-08T03:29:29.110Z,95804.35
2019-06-08T03:31:59.005Z,95814.30
2019-06-08T03:34:29.017Z,95811.81
2019-06-08T03:36:58.990Z,95806.71
2019-06-08T03:39:28.992Z,95810.87
2019-06-08T03:41:58.961Z,95814.52
2019-06-08T03:44:28.974Z,95818.16
2019-06-08T03:47:00.115Z,95822.83
2019-06-08T03:49:42.803Z,95827.23
2019-06-08T03:52:01.729Z,95834.72
2019-06-08T03:54:31.738Z,95834.19
2019-06-08T03:57:01.718Z,95836.00
2019-06-08T03:59:31.633Z,95846.58
2019-06-08T04:02:01.612Z,95846.94
2019-06-08T04:04:31.622Z,95851.73
2019-06-08T04:07:01.538Z,95848.56
2019-06-08T04:09:31.535Z,95850.75
2019-06-08T04:12:01.552Z,95848.44
2019-06-08T04:14:31.597Z,95857.70
2019-06-08T04:17:01.521Z,95858.02
2019-06-08T04:19:31.422Z,95854.72
2019-06-08T04:22:01.430Z,95861.48
2019-06-08T04:24:31.410Z,95858.99
2019-06-08T04:27:01.342Z,95864.95
2019-06-08T04:29:31.303Z,95869.13
2019-06-08T04:32:01.311Z,95872.25
2019-06-08T04:34:31.291Z,95873.72
2019-06-08T04:37:01.231Z,95876.03
2019-06-08T04:39:31.225Z,95880.48
2019-06-08T04:42:01.222Z,95879.70
2019-06-08T04:44:31.194Z,95887.78
2019-06-08T04:47:01.191Z,95891.25
2019-06-08T04:49:31.176Z,95890.13
2019-06-08T04:52:01.109Z,95890.42
2019-06-08T04:54:31.161Z,95894.62
2019-06-08T04:57:01.147Z,95907.16
2019-06-08T04:59:31.120Z,95903.83
2019-06-08T05:02:01.131Z,95908.48
2019-06-08T05:04:31.179Z,95919.05
2019-06-08T05:07:01.201Z,95925.47
2019-06-08T05:09:31.170Z,95921.70
2019-06-08T05:12:01.190Z,95928.80
2019-06-08T05:14:31.162Z,95935.22
2019-06-08T05:17:01.232Z,95932.13
2019-06-08T05:19:31.639Z,95936.23
2019-06-08T05:22:02.373Z,95942.32
2019-06-08T05:24:32.354Z,95943.48
2019-06-08T05:27:02.357Z,95946.97
2019-06-08T05:29:32.374Z,95947.61
2019-06-08T05:32:02.348Z,95956.89
2019-06-08T05:34:32.365Z,95960.49
2019-06-08T05:37:02.342Z,95956.03
2019-06-08T05:39:32.292Z,95959.81
2019-06-08T05:42:02.270Z,95959.31
2019-06-08T05:44:32.272Z,95968.91
2019-06-08T05:47:02.319Z,95972.73
2019-06-08T05:49:33.497Z,95978.02
2019-06-08T05:52:03.464Z,95984.29
2019-06-08T05:54:33.476Z,95977.68
2019-06-08T05:57:03.546Z,95984.29
2019-06-08T05:59:33.559Z,95993.55
2019-06-08T06:02:03.470Z,95994.86
2019-06-08T06:04:33.484Z,96001.63
2019-06-08T06:07:03.533Z,96002.13
2019-06-08T06:09:33.556Z,96005.75
2019-06-08T06:12:03.570Z,96009.26
2019-06-08T06:14:36.785Z,96014.70
2019-06-08T06:17:05.241Z,96015.34
2019-06-08T06:19:35.216Z,96022.79
2019-06-08T06:22:05.287Z,96025.40
2019-06-08T06:24:35.260Z,96024.11
2019-06-08T06:27:05.266Z,96030.20
2019-06-08T06:29:35.237Z,96033.83
2019-06-08T06:32:05.647Z,96032.33
2019-06-08T06:34:35.619Z,96039.13
2019-06-08T06:37:05.627Z,96037.30
2019-06-08T06:39:35.607Z,96036.66
2019-06-08T06:42:05.616Z,96039.09
2019-06-08T06:44:35.610Z,96035.80
2019-06-08T06:47:05.592Z,96038.91
2019-06-08T06:49:35.592Z,96044.19
2019-06-08T06:52:05.602Z,96049.64
2019-06-08T06:54:36.624Z,96051.08
2019-06-08T06:57:06.662Z,96060.03
2019-06-08T06:59:36.638Z,96059.05
2019-06-08T07:02:06.646Z,96063.17
2019-06-08T07:04:36.642Z,96068.92
2019-06-08T07:07:06.649Z,96066.95
2019-06-08T07:09:36.634Z,96066.46
2019-06-08T07:12:06.612Z,96070.62
2019-06-08T07:14:36.547Z,96075.23
2019-06-08T07:17:06.515Z,96072.21
2019-06-08T07:19:36.533Z,96071.53
2019-06-08T07:22:06.497Z,96073.64
2019-06-08T07:24:36.527Z,96071.61
2019-06-08T07:27:07.546Z,96083.03
2019-06-08T07:29:38.090Z,96075.42
2019-06-08T07:32:08.063Z,96077.20
2019-06-08T07:34:41.102Z,96080.53
2019-06-08T07:37:09.673Z,96084.20
2019-06-08T07:39:39.683Z,96085.86
2019-06-08T07:42:09.668Z,96089.01
2019-06-08T07:44:39.672Z,96089.00
2019-06-08T07:47:09.650Z,96088.66
2019-06-08T07:49:39.640Z,96089.80
2019-06-08T07:52:10.980Z,96088.31
2019-06-08T07:54:41.168Z,96087.30
2019-06-08T07:57:11.171Z,96092.40
2019-06-08T07:59:41.137Z,96082.75
2019-06-08T08:02:11.136Z,96080.73
2019-06-08T08:04:41.109Z,96089.90
2019-06-08T08:07:11.111Z,96090.20
2019-06-08T08:09:41.097Z,96087.11
2019-06-08T08:12:12.297Z,96089.60
2019-06-08T08:14:42.541Z,96092.25
2019-06-08T08:17:12.550Z,96090.54
2019-06-08T08:19:42.827Z,96086.88
2019-06-08T08:22:25.930Z,96091.22
2019-06-08T08:24:44.512Z,96095.44
2019-06-08T08:27:14.526Z,96092.59
2019-06-08T08:29:44.499Z,96091.61
2019-06-08T08:32:14.503Z,96093.27
2019-06-08T08:34:44.483Z,96098.37
2019-06-08T08:37:14.487Z,96108.52
2019-06-08T08:39:44.461Z,96103.62
2019-06-08T08:42:14.458Z,96113.83
2019-06-08T08:44:44.432Z,96107.55
2019-06-08T08:47:14.454Z,96112.50
2019-06-08T08:49:44.427Z,96116.08
2019-06-08T08:52:14.504Z,96118.73
2019-06-08T08:54:44.469Z,96117.61
2019-06-08T08:57:14.482Z,96120.27
2019-06-08T08:59:44.458Z,96118.31
2019-06-08T09:02:14.471Z,96115.84
2019-06-08T09:04:44.446Z,96126.29
2019-06-08T09:07:14.465Z,96129.91
2019-06-08T09:09:44.436Z,96129.08
2019-06-08T09:12:14.387Z,96122.56
2019-06-08T09:14:44.358Z,96125.52
2019-06-08T09:17:14.358Z,96114.21
2019-06-08T09:19:44.263Z,96117.89
2019-06-08T09:22:14.266Z,96120.97
2019-06-08T09:24:44.230Z,96113.39
2019-06-08T09:27:14.238Z,96119.09
2019-06-08T09:29:44.210Z,96124.17
2019-06-08T09:32:14.209Z,96126.06
2019-06-08T09:34:44.189Z,96130.25
2019-06-08T09:37:14.265Z,96139.53
2019-06-08T09:39:44.247Z,96140.22
2019-06-08T09:42:14.315Z,96144.84
2019-06-08T09:44:44.319Z,96146.03
2019-06-08T09:47:14.300Z,96145.13
2019-06-08T09:49:44.341Z,96145.52
2019-06-08T09:52:14.369Z,96137.45
2019-06-08T09:54:44.377Z,96143.20
2019-06-08T09:57:14.342Z,96145.94
2019-06-08T09:59:48.094Z,96150.00
2019-06-08T10:02:18.467Z,96134.64
2019-06-08T10:04:48.884Z,96142.88
2019-06-08T10:07:18.910Z,96142.99
2019-06-08T10:09:50.232Z,96141.08
2019-06-08T10:12:20.354Z,96134.95
2019-06-08T10:14:50.350Z,96143.25
2019-06-08T10:17:21.090Z,96146.80
2019-06-08T10:19:51.646Z,96139.92
2019-06-08T10:22:21.652Z,96138.70
2019-06-08T10:24:51.633Z,96138.90
2019-06-08T10:27:21.637Z,96142.05
2019-06-08T10:29:51.639Z,96135.14
2019-06-08T10:32:23.253Z,96140.45
2019-06-08T10:34:53.255Z,96140.75
2019-06-08T10:37:23.239Z,96137.42
2019-06-08T10:39:53.325Z,96145.98
2019-06-08T10:42:23.277Z,96136.81
2019-06-08T10:44:54.451Z,96138.88
2019-06-08T10:47:24.419Z,96139.41
2019-06-08T10:49:54.425Z,96143.16
2019-06-08T10:52:24.390Z,96136.87
2019-06-08T10:54:54.405Z,96142.20
2019-06-08T10:57:24.357Z,96144.93
2019-06-08T10:59:54.363Z,96143.84
2019-06-08T11:02:24.342Z,96145.28
2019-06-08T11:04:54.337Z,96142.44
2019-06-08T11:07:24.310Z,96139.50
2019-06-08T11:09:54.312Z,96141.66
2019-06-08T11:12:24.284Z,96137.01
2019-06-08T11:14:54.295Z,96133.94
2019-06-08T11:17:24.259Z,96133.68
2019-06-08T11:19:54.279Z,96130.47
2019-06-08T11:22:24.323Z,96129.23
2019-06-08T11:24:54.386Z,96125.25
2019-06-08T11:27:24.318Z,96120.92
2019-06-08T11:29:54.346Z,96115.52
2019-06-08T11:32:24.238Z,96116.64
2019-06-08T11:34:54.260Z,96110.85
2019-06-08T11:37:24.224Z,96111.39
2019-06-08T11:39:54.246Z,96110.83
2019-06-08T11:42:26.268Z,96103.70
2019-06-08T11:44:58.527Z,96106.20
2019-06-08T11:47:27.755Z,96107.20
2019-06-08T11:50:00.553Z,96105.94
2019-06-08T11:52:31.020Z,96094.56
2019-06-08T11:55:03.465Z,96102.52
2019-06-08T11:57:34.204Z,96098.91
2019-06-08T12:00:18.296Z,96095.07
2019-06-08T12:02:38.325Z,96099.52
2019-06-08T12:05:10.509Z,96107.26
2019-06-08T12:07:38.318Z,96105.63
2019-06-08T12:10:09.054Z,96101.75
2019-06-08T12:12:38.489Z,96095.52
2019-06-08T12:15:10.076Z,96093.70
2019-06-08T12:17:38.221Z,96095.15
2019-06-08T12:20:08.508Z,96104.41
2019-06-08T12:22:37.708Z,96107.77
2019-06-08T12:25:08.247Z,96093.20
2019-06-08T12:27:40.089Z,96092.70
2019-06-08T12:30:13.073Z,96081.97
2019-06-08T12:32:38.101Z,96081.25
2019-06-08T12:35:09.149Z,96082.29
2019-06-08T12:37:38.696Z,96081.11
2019-06-08T12:40:11.468Z,96067.30
2019-06-08T12:42:38.352Z,96076.92
2019-06-08T12:45:07.306Z,96069.65
2019-06-08T12:47:38.148Z,96066.69
2019-06-08T12:50:08.927Z,96065.81
2019-06-08T12:52:39.123Z,96067.31
2019-06-08T12:55:14.296Z,96069.22
2019-06-08T12:57:38.802Z,96067.16
2019-06-08T13:00:08.441Z,96067.13
2019-06-08T13:02:38.506Z,96068.27
2019-06-08T13:05:10.660Z,96067.27
2019-06-08T13:07:38.624Z,96068.20
2019-06-08T13:10:09.013Z,96067.06
2019-06-08T13:12:40.933Z,96061.69
2019-06-08T13:15:10.057Z,96065.70
2019-06-08T13:17:39.737Z,96064.68
2019-06-08T13:20:15.377Z,96068.47
2019-06-08T13:22:44.176Z,96052.13
2019-06-08T13:25:23.720Z,96054.91
2019-06-08T13:27:44.120Z,96056.81
2019-06-08T13:30:17.410Z,96054.83
2019-06-08T13:32:43.772Z,96061.78
2019-06-08T13:35:14.351Z,96063.05
2019-06-08T13:37:43.220Z,96056.08
2019-06-08T13:40:13.460Z,96060.87
2019-06-08T13:42:42.292Z,96061.44
2019-06-08T13:45:11.934Z,96065.39
2019-06-08T13:47:41.455Z,96065.80
2019-06-08T13:50:13.045Z,96061.07
2019-06-08T13:52:42.447Z,96053.75
2019-06-08T13:55:11.232Z,96054.73
2019-06-08T13:57:40.022Z,96050.29
2019-06-08T14:00:09.921Z,96051.90
2019-06-08T14:02:39.885Z,96045.65
2019-06-08T14:05:09.587Z,96042.92
2019-06-08T14:07:38.492Z,96047.56
2019-06-08T14:10:08.153Z,96040.80
2019-06-08T14:12:38.469Z,96040.27
2019-06-08T14:15:08.605Z,96041.60
2019-06-08T14:17:37.939Z,96034.45
2019-06-08T14:20:08.060Z,96026.42
2019-06-08T14:22:38.790Z,96039.73
2019-06-08T14:25:10.854Z,96040.81
2019-06-08T14:27:39.648Z,96047.02
2019-06-08T14:30:08.594Z,96045.65
2019-06-08T14:32:38.109Z,96041.80
2019-06-08T14:35:08.727Z,96043.11
2019-06-08T14:37:39.191Z,96043.88
2019-06-08T14:40:08.309Z,96048.16
2019-06-08T14:42:38.402Z,96045.22
2019-06-08T14:45:10.811Z,96035.29
2019-06-08T14:47:38.792Z,96035.03
2019-06-08T14:50:08.070Z,96034.68
2019-06-08T14:52:38.192Z,96034.14
2019-06-08T14:55:08.664Z,96030.00
2019-06-08T14:57:40.116Z,96025.18
2019-06-08T15:00:11.937Z,96025.02
2019-06-08T15:02:38.956Z,96019.70
2019-06-08T15:05:07.960Z,96023.37
2019-06-08T15:07:38.836Z,96019.58
2019-06-08T15:10:09.828Z,96017.05
2019-06-08T15:12:38.421Z,96012.52
2019-06-08T15:15:08.344Z,96013.30
2019-06-08T15:17:38.178Z,96016.09
2019-06-08T15:20:08.818Z,96006.87
2019-06-08T15:22:38.927Z,96003.22
2019-06-08T15:25:11.147Z,96008.80
2019-06-08T15:27:39.181Z,96003.22
2019-06-08T15:30:08.150Z,96006.87
2019-06-08T15:32:38.631Z,95998.14
2019-06-08T15:35:08.018Z,95999.00
2019-06-08T15:37:38.097Z,96001.59
2019-06-08T15:40:07.981Z,95993.72
2019-06-08T15:42:37.380Z,95991.55
2019-06-08T15:45:08.645Z,95993.06
2019-06-08T15:47:40.553Z,95990.15
2019-06-08T15:50:08.806Z,95990.46
2019-06-08T15:52:38.068Z,95990.81
2019-06-08T15:55:11.208Z,95985.98
2019-06-08T15:57:41.304Z,95990.46
2019-06-08T16:00:11.022Z,95990.02
2019-06-08T16:02:39.881Z,95984.16
2019-06-08T16:05:09.038Z,95980.62
2019-06-08T16:07:37.772Z,95984.05
2019-06-08T16:10:08.171Z,95982.55
2019-06-08T16:12:36.972Z,95973.19
2019-06-08T16:15:06.605Z,95979.52
2019-06-08T16:17:35.643Z,95984.05
2019-06-08T16:20:05.063Z,95979.16
2019-06-08T16:22:35.986Z,95975.06
2019-06-08T16:25:06.320Z,95977.94
2019-06-08T16:27:35.999Z,95975.57
2019-06-08T16:30:09.480Z,95981.59
2019-06-08T16:32:36.778Z,95970.55
2019-06-08T16:35:06.421Z,95980.58
2019-06-08T16:37:35.744Z,95980.38
2019-06-08T16:40:07.356Z,95981.48
2019-06-08T16:42:36.921Z,95978.42
2019-06-08T16:45:06.889Z,95981.57
2019-06-08T16:47:35.700Z,95980.22
2019-06-08T16:50:07.503Z,95982.08
2019-06-08T16:52:36.734Z,95981.02
2019-06-08T16:55:06.332Z,95978.57
2019-06-08T16:57:38.282Z,95981.67
2019-06-08T17:00:29.968Z,95985.53
2019-06-08T17:02:37.262Z,95986.87
2019-06-08T17:05:06.880Z,95984.70
2019-06-08T17:07:35.686Z,95981.95
2019-06-08T17:10:07.421Z,95982.03
2019-06-08T17:12:37.021Z,95980.52
2019-06-08T17:15:06.068Z,95977.11
2019-06-08T17:17:36.350Z,95980.84
2019-06-08T17:20:05.849Z,95973.75
2019-06-08T17:22:34.747Z,95971.61
2019-06-08T17:25:08.107Z,95963.89
2019-06-08T17:27:36.750Z,95965.71
2019-06-08T17:30:08.540Z,95972.44
2019-06-08T17:32:38.480Z,95965.48
2019-06-08T17:35:08.123Z,95968.81
2019-06-08T17:37:38.000Z,95968.39
2019-06-08T17:40:07.553Z,95971.31
2019-06-08T17:42:37.491Z,95975.85
2019-06-08T17:45:08.089Z,95972.46
2019-06-08T17:47:36.892Z,95969.13
2019-06-08T17:50:08.533Z,95970.15
2019-06-08T17:52:37.337Z,95971.75
2019-06-08T17:55:06.161Z,95971.69
2019-06-08T17:57:47.184Z,95969.33
2019-06-08T18:00:07.096Z,95967.70
2019-06-08T18:02:39.837Z,95969.13
2019-06-08T18:05:07.073Z,95966.94
2019-06-08T18:07:38.512Z,95976.63
2019-06-08T18:10:07.224Z,95972.67
2019-06-08T18:12:40.841Z,95968.09
2019-06-08T18:15:08.109Z,95968.42
2019-06-08T18:17:40.808Z,95960.95
2019-06-08T18:20:12.724Z,95965.55
2019-06-08T18:22:43.128Z,95964.03
2019-06-08T18:25:12.270Z,95967.54
2019-06-08T18:27:46.434Z,95969.58
2019-06-08T18:30:13.127Z,95959.63
2019-06-08T18:32:42.471Z,95957.25
2019-06-08T18:35:12.341Z,95964.75
2019-06-08T18:37:42.537Z,95967.77
2019-06-08T18:40:12.772Z,95969.28
2019-06-08T18:42:42.723Z,95971.73
2019-06-08T18:45:12.837Z,95976.23
2019-06-08T18:47:42.389Z,95973.35
2019-06-08T18:50:12.484Z,95975.26
2019-06-08T18:52:44.907Z,95972.77
2019-06-08T18:55:12.948Z,95979.99
2019-06-08T18:57:42.697Z,95978.54
2019-06-08T19:00:12.578Z,95973.53
2019-06-08T19:02:43.733Z,95975.23
2019-06-08T19:05:11.957Z,95979.77
2019-06-08T19:07:41.589Z,95987.91
2019-06-08T19:10:11.825Z,95982.51
2019-06-08T19:12:41.826Z,95990.61
2019-06-08T19:15:11.435Z,95995.67
2019-06-08T19:17:48.260Z,95992.37
2019-06-08T19:20:11.144Z,95990.06
2019-06-08T19:22:43.739Z,95994.63
2019-06-08T19:25:10.468Z,95997.98
2019-06-08T19:27:45.121Z,96004.48
2019-06-08T19:30:09.937Z,96003.97
2019-06-08T19:32:40.393Z,96002.42
2019-06-08T19:35:09.225Z,96003.69
2019-06-08T19:37:38.125Z,96012.81
2019-06-08T19:40:07.528Z,96018.58
2019-06-08T19:42:44.766Z,96025.64
2019-06-08T19:45:08.769Z,96030.34
2019-06-08T19:47:38.414Z,96035.73
2019-06-08T19:50:08.487Z,96037.15
2019-06-08T19:52:40.001Z,96039.83
2019-06-08T19:55:08.213Z,96039.02
2019-06-08T19:57:37.013Z,96035.95
2019-06-08T20:00:07.464Z,96041.17
2019-06-08T20:02:36.612Z,96041.59
2019-06-08T20:05:07.592Z,96041.45
2019-06-08T20:07:37.893Z,96048.30
2019-06-08T20:10:09.904Z,96043.20
2019-06-08T20:12:38.729Z,96038.52
2019-06-08T20:15:08.664Z,96037.15
2019-06-08T20:17:37.966Z,96043.64
2019-06-08T20:20:10.685Z,96046.00
2019-06-08T20:22:38.064Z,96038.75
2019-06-08T20:25:10.489Z,96039.78
2019-06-08T20:27:38.047Z,96042.97
2019-06-08T20:30:09.570Z,96043.51
2019-06-08T20:32:37.923Z,96037.28
2019-06-08T20:35:07.999Z,96038.45
2019-06-08T20:37:38.094Z,96039.78
2019-06-08T20:40:13.599Z,96043.48
2019-06-08T20:42:38.003Z,96040.38
2019-06-08T20:45:08.143Z,96043.20
2019-06-08T20:47:39.091Z,96039.77
2019-06-08T20:50:07.808Z,96046.22
2019-06-08T20:52:37.760Z,96041.97
2019-06-08T20:55:07.949Z,96035.36
2019-06-08T20:57:37.003Z,96036.01
2019-06-08T21:00:09.161Z,96037.33
2019-06-08T21:02:37.332Z,96028.77
2019-06-08T21:05:07.806Z,96032.08
2019-06-08T21:07:36.636Z,96028.30
2019-06-08T21:10:08.620Z,96028.14
2019-06-08T21:12:37.958Z,96032.93
2019-06-08T21:15:07.158Z,96033.11
2019-06-08T21:17:38.446Z,96030.66
2019-06-08T21:20:08.525Z,96035.14
2019-06-08T21:22:37.621Z,96030.84
2019-06-08T21:25:08.598Z,96033.98
2019-06-08T21:27:38.523Z,96029.70
2019-06-08T21:30:19.933Z,96028.53
2019-06-08T21:32:38.669Z,96028.70
2019-06-08T21:35:07.731Z,96030.84
2019-06-08T21:37:37.714Z,96022.61
2019-06-08T21:40:08.543Z,96027.58
2019-06-08T21:42:37.425Z,96026.40
2019-06-08T21:45:09.524Z,96031.02
2019-06-08T21:47:37.811Z,96031.20
2019-06-08T21:50:08.281Z,96027.05
2019-06-08T21:52:37.087Z,96029.53
2019-06-08T21:55:07.348Z,96025.05
2019-06-08T21:57:37.112Z,96031.48
2019-06-08T22:00:26.784Z,96036.44
2019-06-08T22:02:40.268Z,96035.43
2019-06-08T22:05:09.270Z,96037.89
2019-06-08T22:07:39.156Z,96037.56
2019-06-08T22:10:09.465Z,96032.12
2019-06-08T22:12:40.366Z,96036.39
2019-06-08T22:15:08.778Z,96038.71
2019-06-08T22:17:38.303Z,96033.92
2019-06-08T22:20:08.320Z,96038.54
2019-06-08T22:22:37.835Z,96043.16
2019-06-08T22:25:08.149Z,96038.70
2019-06-08T22:27:38.200Z,96043.01
2019-06-08T22:30:13.352Z,96043.00
2019-06-08T22:32:38.503Z,96037.58
2019-06-08T22:35:08.137Z,96043.53
2019-06-08T22:37:38.060Z,96046.82
2019-06-08T22:40:08.228Z,96041.70
2019-06-08T22:42:37.743Z,96037.08
2019-06-08T22:45:08.285Z,96045.69
2019-06-08T22:47:38.716Z,96036.13
2019-06-08T22:50:08.425Z,96041.06
2019-06-08T22:52:37.681Z,96037.11
2019-06-08T22:55:10.530Z,96036.13
2019-06-08T22:57:37.749Z,96031.48
2019-06-08T23:00:14.497Z,96027.20
2019-06-08T23:02:38.812Z,96028.57
2019-06-08T23:05:09.101Z,96020.95
2019-06-08T23:07:38.165Z,96018.64
2019-06-08T23:10:09.030Z,96027.08
2019-06-08T23:12:38.184Z,96026.23
2019-06-08T23:15:08.233Z,96029.05
2019-06-08T23:17:38.742Z,96026.75
2019-06-08T23:20:08.720Z,96035.98
2019-06-08T23:22:38.693Z,96031.52
2019-06-08T23:25:09.272Z,96028.55
2019-06-08T23:27:38.386Z,96032.03
2019-06-08T23:30:10.221Z,96032.70
2019-06-08T23:32:39.092Z,96026.42
2019-06-08T23:35:09.354Z,96027.89
2019-06-08T23:37:38.346Z,96030.22
2019-06-08T23:40:07.730Z,96027.58
2019-06-08T23:42:38.406Z,96032.52
2019-06-08T23:45:10.377Z,96023.94
2019-06-08T23:47:38.807Z,96021.43
2019-06-08T23:50:10.076Z,96016.16
2019-06-08T23:52:38.452Z,96018.61
2019-06-08T23:55:10.493Z,96017.47
2019-06-08T23:57:38.248Z,96015.01
